Time;durP1;ratioP1;P1;durP2;ratioP2;P2;SDS_P1;SDS_P2;PMS_P1;PMS_P2;Temp;Humidity;BMP_temperature;BMP_pressure;BME280_temperature;BME280_humidity;BME280_pressure;Samples;Min_cycle;Max_cycle;Signal;HPM_P1;HPM_P2
2021/01/21 05:16:14;;;;;;;1.10;1.10;;;6.10;99.90;;;;;;5505273;23;20238;-79
2021/01/21 05:18:41;;;;;;;1.00;1.00;;;6.10;99.90;;;;;;4901207;29;20207;-79
2021/01/21 05:21:08;;;;;;;1.30;1.30;;;6.10;99.90;;;;;;4901721;29;20227;-79
2021/01/21 05:23:38;;;;;;;1.10;1.10;;;6.00;99.90;;;;;;4901392;29;20267;-79
2021/01/21 05:26:05;;;;;;;1.00;1.00;;;6.10;99.90;;;;;;4901019;29;20227;-80
2021/01/21 05:28:33;;;;;;;1.20;1.20;;;6.30;99.90;;;;;;4900819;29;20211;-80
2021/01/21 05:31:01;;;;;;;1.20;1.20;;;;;;;;;;4914184;23;20242;-74
2021/01/21 05:33:30;;;;;;;1.10;1.10;;;6.30;99.90;;;;;;4898356;29;20609;-75
2021/01/21 05:35:58;;;;;;;1.00;1.00;;;6.30;99.90;;;;;;4898358;29;20319;-75
2021/01/21 05:38:24;;;;;;;1.30;1.30;;;6.30;99.90;;;;;;4895294;29;20206;-75
2021/01/21 05:40:51;;;;;;;0.97;0.97;;;6.40;99.90;;;;;;4901314;29;20226;-75
2021/01/21 05:43:19;;;;;;;1.10;1.10;;;;;;;;;;4917000;29;20207;-73
2021/01/21 05:45:46;;;;;;;1.10;1.10;;;6.30;99.90;;;;;;4916839;29;20206;-73
2021/01/21 05:48:15;;;;;;;1.13;1.13;;;;;;;;;;4916594;29;20207;-75
2021/01/21 05:50:43;;;;;;;1.10;1.10;;;6.50;99.90;;;;;;4917043;29;20226;-74
2021/01/21 05:53:11;;;;;;;1.10;1.10;;;6.40;99.90;;;;;;4916826;29;20203;-73
2021/01/21 05:55:39;;;;;;;1.10;1.10;;;6.10;99.90;;;;;;4916578;29;20648;-74
2021/01/21 05:58:06;;;;;;;1.00;1.00;;;6.40;99.90;;;;;;4916557;29;20211;-74
2021/01/21 06:00:34;;;;;;;1.00;1.00;;;6.50;99.90;;;;;;4916011;29;20245;-75
2021/01/21 06:03:01;;;;;;;1.13;1.13;;;;;;;;;;4916503;29;20669;-73
2021/01/21 06:05:28;;;;;;;1.00;1.00;;;6.50;99.90;;;;;;4902070;29;20204;-73
2021/01/21 06:07:56;;;;;;;1.20;1.20;;;6.70;99.90;;;;;;4878409;29;20212;-74
2021/01/21 06:10:23;;;;;;;1.03;1.03;;;;;;;;;;4878753;29;20233;-76
2021/01/21 06:12:51;;;;;;;1.07;1.07;;;6.70;99.90;;;;;;4878724;29;20262;-74
2021/01/21 06:15:19;;;;;;;1.07;1.07;;;6.70;99.90;;;;;;4879012;29;20662;-77
2021/01/21 06:17:48;;;;;;;0.90;0.90;;;6.70;99.90;;;;;;4878947;29;20700;-75
2021/01/21 06:20:16;;;;;;;1.00;1.00;;;6.60;99.90;;;;;;4878598;29;20239;-76
2021/01/21 06:22:45;;;;;;;1.10;1.10;;;6.70;99.90;;;;;;4878733;29;20283;-75
2021/01/21 06:25:14;;;;;;;1.27;1.27;;;6.60;99.90;;;;;;4896847;29;20203;-77
2021/01/21 06:27:42;;;;;;;1.30;1.30;;;6.70;99.90;;;;;;4896406;29;20668;-75
2021/01/21 06:30:14;;;;;;;1.20;1.20;;;6.60;99.90;;;;;;4893997;29;20227;-75
2021/01/21 06:32:49;;;;;;;0.90;0.90;;;6.60;99.90;;;;;;4897105;29;20656;-76
2021/01/21 06:35:20;;;;;;;1.20;1.20;;;6.60;99.90;;;;;;4895540;29;20583;-75
2021/01/21 06:37:56;;;;;;;1.00;1.00;;;6.40;99.90;;;;;;4896241;29;20215;-75
2021/01/21 06:40:25;;;;;;;1.00;1.00;;;6.70;99.90;;;;;;4896846;29;20226;-75
2021/01/21 06:42:59;;;;;;;1.00;1.00;;;6.50;99.90;;;;;;4897069;29;20250;-75
2021/01/21 06:45:27;;;;;;;0.90;0.90;;;6.30;99.90;;;;;;4896227;29;20661;-75
2021/01/21 06:47:55;;;;;;;1.17;1.17;;;6.20;99.90;;;;;;4896489;29;20650;-73
2021/01/21 06:50:28;;;;;;;1.10;1.10;;;6.30;99.90;;;;;;4896454;29;20716;-74
2021/01/21 06:52:58;;;;;;;1.03;1.03;;;4.60;99.90;;;;;;4896263;29;20618;-74
2021/01/21 06:55:28;;;;;;;1.07;1.07;;;6.30;99.90;;;;;;4896047;29;20309;-74
2021/01/21 06:57:55;;;;;;;1.30;1.30;;;;;;;;;;4893625;29;20239;-75
2021/01/21 11:27:42;;;;;;;0.68;0.68;;;12.30;93.90;;;;;;5798121;23;20291;-80
2021/01/21 11:30:13;;;;;;;0.60;0.60;;;12.40;73.70;;;;;;4904975;29;20211;-81
2021/01/21 11:32:42;;;;;;;0.70;0.70;;;12.50;73.90;;;;;;4900603;29;20199;-82
2021/01/21 11:35:10;;;;;;;0.60;0.60;;;12.60;72.50;;;;;;4900721;29;20211;-83
2021/01/21 11:37:37;;;;;;;0.77;0.77;;;12.50;74.30;;;;;;4900757;29;20279;-80
2021/01/21 11:40:05;;;;;;;0.60;0.60;;;12.60;73.70;;;;;;4901108;29;20211;-81
2021/01/21 11:42:32;;;;;;;0.50;0.50;;;12.60;73.30;;;;;;4899443;29;20230;-81
2021/01/21 11:45:01;;;;;;;0.60;0.60;;;12.60;74.10;;;;;;4900748;29;20207;-81
2021/01/21 11:47:29;;;;;;;0.60;0.60;;;12.60;94.00;;;;;;4900223;29;20290;-80
2021/01/21 11:49:57;;;;;;;0.80;0.80;;;12.50;74.00;;;;;;4892125;29;20298;-77
2021/01/21 11:52:25;;;;;;;0.60;0.60;;;12.70;74.20;;;;;;4900609;29;20260;-77
2021/01/21 11:54:52;;;;;;;0.73;0.73;;;12.70;72.70;;;;;;4878812;29;20238;-76
2021/01/21 11:57:18;;;;;;;0.68;0.68;;;12.80;93.60;;;;;;4896073;29;20212;-79
2021/01/21 12:00:01;;;;;;;0.60;0.60;;;12.80;72.80;;;;;;4894349;29;20683;-76
2021/01/21 12:02:29;;;;;;;0.55;0.55;;;12.90;73.30;;;;;;4896137;29;20271;-77
2021/01/21 12:04:56;;;;;;;0.50;0.50;;;12.80;71.80;;;;;;4895852;29;20687;-76
2021/01/21 12:07:22;;;;;;;0.50;0.50;;;12.90;93.30;;;;;;4895862;29;20267;-77
2021/01/21 12:09:49;;;;;;;0.70;0.70;;;12.90;72.50;;;;;;4893775;29;20210;-77
2021/01/21 12:12:18;;;;;;;0.70;0.70;;;12.70;72.00;;;;;;4896152;29;20294;-77
2021/01/21 12:14:45;;;;;;;0.60;0.60;;;12.70;71.40;;;;;;4894172;29;20215;-76
2021/01/21 12:17:13;;;;;;;0.60;0.60;;;12.70;72.00;;;;;;4896111;29;20227;-77
2021/01/21 12:19:40;;;;;;;0.70;0.70;;;12.70;72.10;;;;;;4897457;29;20282;-78
2021/01/21 12:22:07;;;;;;;0.70;0.70;;;12.80;73.60;;;;;;4901130;29;20226;-78
2021/01/21 12:24:34;;;;;;;0.70;0.70;;;12.80;72.40;;;;;;4902263;29;20211;-79
2021/01/21 12:27:01;;;;;;;0.50;0.50;;;12.60;72.70;;;;;;4900296;29;20625;-80
2021/01/21 12:29:28;;;;;;;0.50;0.50;;;12.80;72.00;;;;;;4905372;29;20239;-80
2021/01/21 12:31:55;;;;;;;0.50;0.50;;;12.70;71.50;;;;;;4906035;29;20265;-79
2021/01/21 12:34:23;;;;;;;0.60;0.60;;;12.80;71.30;;;;;;4908520;29;20211;-78
2021/01/21 12:36:50;;;;;;;0.50;0.50;;;12.70;71.80;;;;;;4909081;29;20211;-79
2021/01/21 12:39:17;;;;;;;0.50;0.50;;;12.70;93.50;;;;;;4908900;29;20724;-80
2021/01/21 12:41:43;;;;;;;0.70;0.70;;;12.60;73.90;;;;;;4907250;29;20287;-79
2021/01/21 12:44:10;;;;;;;0.70;0.70;;;12.60;72.40;;;;;;4905085;29;20203;-80
2021/01/21 12:46:37;;;;;;;0.50;0.50;;;12.70;73.40;;;;;;4905162;29;20211;-80
2021/01/21 12:49:04;;;;;;;0.50;0.50;;;12.70;73.50;;;;;;4904636;29;20283;-79
2021/01/21 12:51:32;;;;;;;0.60;0.60;;;12.60;72.90;;;;;;4904109;29;20494;-78
2021/01/21 12:53:59;;;;;;;0.50;0.50;;;12.60;73.70;;;;;;4905520;29;20215;-81
2021/01/21 12:56:25;;;;;;;0.50;0.50;;;12.70;75.20;;;;;;4904567;29;20207;-80
2021/01/21 12:58:52;;;;;;;0.50;0.50;;;12.60;74.90;;;;;;4903931;29;20295;-80
2021/01/21 13:01:19;;;;;;;0.60;0.60;;;12.70;74.50;;;;;;4901490;29;20745;-80
2021/01/21 13:03:46;;;;;;;0.50;0.50;;;12.80;75.10;;;;;;4901803;29;20646;-77
2021/01/21 13:06:13;;;;;;;0.60;0.60;;;12.70;74.20;;;;;;4901109;29;20214;-77
2021/01/21 13:08:42;;;;;;;0.50;0.50;;;12.70;75.90;;;;;;4899847;29;20266;-77
2021/01/21 13:11:09;;;;;;;0.80;0.80;;;12.60;75.30;;;;;;4901431;29;20263;-79
2021/01/21 13:13:36;;;;;;;0.80;0.80;;;12.60;76.00;;;;;;4901651;29;20212;-79
2021/01/21 13:16:04;;;;;;;0.60;0.60;;;12.80;75.80;;;;;;4902974;29;20215;-81
2021/01/21 13:18:31;;;;;;;0.60;0.60;;;12.90;76.50;;;;;;4902690;29;20231;-81
2021/01/21 13:20:59;;;;;;;0.50;0.50;;;13.00;77.10;;;;;;4902759;29;20231;-80
2021/01/21 13:23:26;;;;;;;0.50;0.50;;;13.00;77.10;;;;;;4903046;29;20659;-80
2021/01/21 13:25:53;;;;;;;0.50;0.50;;;13.10;77.00;;;;;;4903134;29;20620;-80
2021/01/21 13:28:20;;;;;;;0.50;0.50;;;13.20;77.20;;;;;;4902969;29;20583;-81
2021/01/21 13:30:47;;;;;;;0.50;0.50;;;13.20;77.20;;;;;;4903432;29;20211;-81
2021/01/21 13:33:14;;;;;;;0.50;0.50;;;13.20;75.60;;;;;;4903449;29;20204;-81
2021/01/21 13:35:42;;;;;;;0.60;0.60;;;12.80;75.50;;;;;;4903867;29;20208;-80
2021/01/21 13:38:09;;;;;;;0.60;0.60;;;12.80;75.20;;;;;;4902182;29;20236;-80
2021/01/21 13:40:57;;;;;;;0.60;0.60;;;12.70;74.80;;;;;;4902202;29;20662;-80
2021/01/21 13:43:24;;;;;;;0.60;0.60;;;12.80;74.80;;;;;;4902518;29;20294;-80
2021/01/21 13:45:51;;;;;;;0.50;0.50;;;12.80;74.80;;;;;;4902878;29;20203;-81
2021/01/21 13:48:19;;;;;;;0.60;0.60;;;12.90;94.10;;;;;;4902503;29;20231;-79
2021/01/21 13:50:47;;;;;;;0.60;0.60;;;12.90;74.40;;;;;;4903103;29;20583;-80
2021/01/21 13:53:14;;;;;;;0.60;0.60;;;13.00;74.10;;;;;;4902025;29;20203;-80
2021/01/21 13:55:41;;;;;;;0.43;0.43;;;13.00;74.80;;;;;;4902468;29;20211;-80
2021/01/21 13:58:09;;;;;;;0.60;0.60;;;13.00;74.30;;;;;;4902190;29;20231;-80
2021/01/21 14:00:36;;;;;;;0.47;0.47;;;12.90;73.70;;;;;;4901904;29;20219;-81
2021/01/21 14:03:07;;;;;;;0.50;0.50;;;12.90;74.90;;;;;;4901883;29;20223;-80
2021/01/21 14:05:34;;;;;;;0.60;0.60;;;12.90;74.00;;;;;;4902225;29;20740;-81
2021/01/21 14:08:01;;;;;;;0.50;0.50;;;12.90;74.70;;;;;;4902059;29;20483;-80
2021/01/21 14:10:29;;;;;;;0.50;0.50;;;12.80;74.80;;;;;;4902362;29;20737;-81
2021/01/21 14:12:55;;;;;;;0.60;0.60;;;12.80;75.40;;;;;;4902003;29;20211;-82
2021/01/21 14:15:23;;;;;;;0.50;0.50;;;12.80;75.00;;;;;;4902105;29;20203;-81
2021/01/21 14:17:50;;;;;;;0.50;0.50;;;12.80;75.40;;;;;;4901715;29;20231;-81
2021/01/21 14:20:17;;;;;;;0.50;0.50;;;12.90;76.00;;;;;;4902078;29;20204;-81
2021/01/21 14:22:44;;;;;;;0.50;0.50;;;12.90;75.90;;;;;;4902080;29;20231;-81
2021/01/21 14:25:12;;;;;;;0.50;0.50;;;12.90;74.80;;;;;;4902381;29;20211;-81
2021/01/21 14:27:39;;;;;;;0.65;0.65;;;13.00;75.80;;;;;;4901327;29;20238;-80
2021/01/21 14:30:06;;;;;;;0.60;0.60;;;13.10;75.20;;;;;;4901768;29;20223;-81
2021/01/21 14:32:35;;;;;;;0.70;0.70;;;12.80;75.00;;;;;;4902076;29;20207;-80
2021/01/21 14:35:03;;;;;;;0.60;0.60;;;12.80;75.60;;;;;;4901790;29;20550;-81
2021/01/21 14:37:30;;;;;;;0.60;0.60;;;12.80;95.00;;;;;;4902042;29;20218;-83
2021/01/21 14:39:58;;;;;;;0.60;0.60;;;12.80;76.40;;;;;;4902710;29;20203;-81
2021/01/21 14:42:25;;;;;;;0.60;0.60;;;12.70;76.70;;;;;;4902014;29;20227;-80
2021/01/21 14:44:52;;;;;;;0.60;0.60;;;12.70;76.80;;;;;;4899928;29;20748;-81
2021/01/21 14:47:23;;;;;;;0.55;0.55;;;12.60;95.30;;;;;;4900137;29;20207;-82
2021/01/21 14:49:51;;;;;;;0.60;0.60;;;12.80;76.90;;;;;;4898779;29;20717;-81
2021/01/21 14:52:18;;;;;;;0.65;0.65;;;12.80;77.80;;;;;;4899828;29;20209;-80
2021/01/21 14:54:45;;;;;;;0.60;0.60;;;12.90;76.80;;;;;;4901148;29;20203;-79
2021/01/21 14:57:12;;;;;;;0.68;0.68;;;12.90;77.60;;;;;;4893451;29;20440;-76
2021/01/21 14:59:40;;;;;;;0.60;0.60;;;12.70;78.20;;;;;;4897512;29;20235;-77
2021/01/21 15:02:07;;;;;;;0.70;0.70;;;12.60;78.70;;;;;;4919826;29;20226;-81
2021/01/21 15:04:36;;;;;;;0.70;0.70;;;12.60;78.80;;;;;;4920252;29;20202;-78
2021/01/21 15:07:04;;;;;;;0.60;0.60;;;12.60;79.40;;;;;;4915547;29;20211;-76
2021/01/21 15:09:31;;;;;;;0.60;0.60;;;12.60;79.60;;;;;;4915162;29;20711;-76
2021/01/21 15:11:58;;;;;;;0.60;0.60;;;12.50;79.30;;;;;;4916339;29;20266;-80
2021/01/21 15:14:26;;;;;;;0.50;0.50;;;12.40;80.10;;;;;;4917612;29;20210;-75
2021/01/21 15:16:52;;;;;;;0.60;0.60;;;12.40;80.00;;;;;;4915388;29;20211;-76
2021/01/21 15:19:21;;;;;;;0.60;0.60;;;12.40;80.30;;;;;;4915516;29;20229;-76
2021/01/21 15:21:48;;;;;;;0.60;0.60;;;12.30;81.30;;;;;;4915929;29;20203;-75
2021/01/21 15:24:15;;;;;;;0.60;0.60;;;12.30;81.30;;;;;;4916341;29;20210;-76
2021/01/21 15:26:42;;;;;;;0.60;0.60;;;12.20;81.50;;;;;;4915549;29;20206;-76
2021/01/21 15:29:10;;;;;;;0.60;0.60;;;12.10;80.00;;;;;;4915329;29;20234;-77
2021/01/21 15:31:36;;;;;;;0.80;0.80;;;11.70;79.50;;;;;;4916052;29;20210;-77
2021/01/21 15:34:05;;;;;;;0.80;0.80;;;11.10;81.20;;;;;;4915686;29;20230;-77
2021/01/21 15:36:31;;;;;;;0.60;0.60;;;10.90;82.60;;;;;;4915194;29;20214;-76
2021/01/21 15:38:58;;;;;;;0.65;0.65;;;10.70;84.10;;;;;;4915094;29;20231;-76
2021/01/21 15:41:26;;;;;;;0.70;0.70;;;10.70;85.40;;;;;;4915289;29;20240;-76
2021/01/21 15:43:53;;;;;;;0.75;0.75;;;10.70;86.30;;;;;;4915251;29;20222;-77
2021/01/21 15:46:20;;;;;;;0.80;0.80;;;11.00;83.90;;;;;;4902825;29;20203;-77
2021/01/21 15:48:49;;;;;;;0.70;0.70;;;11.10;83.50;;;;;;4895687;29;20775;-76
2021/01/21 15:51:16;;;;;;;0.60;0.60;;;11.20;83.20;;;;;;4893884;29;20266;-77
2021/01/21 15:53:43;;;;;;;0.70;0.70;;;11.30;83.00;;;;;;4895935;29;20685;-77
2021/01/21 15:56:10;;;;;;;0.60;0.60;;;11.30;82.60;;;;;;4896352;29;20202;-77
2021/01/21 15:58:39;;;;;;;0.75;0.75;;;11.10;81.90;;;;;;4895720;29;20219;-77
2021/01/21 16:01:06;;;;;;;0.70;0.70;;;10.50;98.30;;;;;;4896446;29;20200;-77
2021/01/21 16:03:32;;;;;;;0.80;0.80;;;10.30;84.00;;;;;;4899313;29;20219;-76
2021/01/21 16:06:00;;;;;;;0.70;0.70;;;10.10;85.10;;;;;;4899893;29;20280;-79
2021/01/21 16:08:28;;;;;;;0.80;0.80;;;9.90;85.90;;;;;;4899507;29;20319;-76
2021/01/21 16:10:55;;;;;;;0.80;0.80;;;9.60;87.50;;;;;;4899446;29;20203;-77
2021/01/21 16:13:21;;;;;;;0.70;0.70;;;9.70;88.50;;;;;;4901970;29;20259;-77
2021/01/21 16:15:49;;;;;;;0.73;0.73;;;9.90;87.50;;;;;;4908866;29;20207;-77
2021/01/21 16:18:18;;;;;;;0.80;0.80;;;10.10;87.60;;;;;;4896986;29;20230;-77
2021/01/21 16:20:45;;;;;;;0.70;0.70;;;10.10;87.80;;;;;;4901497;29;20199;-81
2021/01/21 16:23:12;;;;;;;0.80;0.80;;;10.30;87.80;;;;;;4900731;29;20216;-80
2021/01/21 16:25:39;;;;;;;0.85;0.85;;;10.40;87.50;;;;;;4900886;29;20203;-80
2021/01/21 16:28:06;;;;;;;0.70;0.70;;;10.60;85.40;;;;;;4900810;29;20724;-80
2021/01/21 16:30:33;;;;;;;0.70;0.70;;;10.80;98.40;;;;;;4901125;29;20199;-81
2021/01/21 16:33:02;;;;;;;0.80;0.80;;;10.90;98.40;;;;;;4900285;29;20205;-80
2021/01/21 16:35:30;;;;;;;0.70;0.70;;;10.90;84.00;;;;;;4902978;29;20267;-81
2021/01/21 16:37:57;;;;;;;0.60;0.60;;;11.00;83.90;;;;;;4902224;29;20616;-78
2021/01/21 16:40:25;;;;;;;0.80;0.80;;;11.00;82.90;;;;;;4902939;29;20203;-78
2021/01/21 16:42:53;;;;;;;0.80;0.80;;;11.00;82.70;;;;;;4903567;29;20219;-78
2021/01/21 16:45:19;;;;;;;0.70;0.70;;;11.00;83.10;;;;;;4904668;29;20620;-78
2021/01/21 16:47:48;;;;;;;0.70;0.70;;;10.80;83.40;;;;;;4903570;29;20246;-78
2021/01/21 16:50:16;;;;;;;0.70;0.70;;;10.70;84.10;;;;;;4904317;29;20203;-82
2021/01/21 16:52:43;;;;;;;0.80;0.80;;;10.60;85.00;;;;;;4901496;29;20338;-78
2021/01/21 16:55:10;;;;;;;0.70;0.70;;;10.60;84.60;;;;;;4901590;29;20251;-79
2021/01/21 16:57:38;;;;;;;0.80;0.80;;;10.50;84.70;;;;;;4902469;29;20314;-79
2021/01/21 17:00:07;;;;;;;0.80;0.80;;;10.50;84.50;;;;;;4902531;29;20218;-79
2021/01/21 17:02:34;;;;;;;0.90;0.90;;;10.40;87.50;;;;;;4884575;29;20724;-77
2021/01/21 17:05:02;;;;;;;0.80;0.80;;;10.40;84.70;;;;;;4901753;29;20587;-79
2021/01/21 17:07:29;;;;;;;0.80;0.80;;;10.30;98.70;;;;;;4902673;29;20270;-78
2021/01/21 17:09:56;;;;;;;0.60;0.60;;;10.50;84.40;;;;;;4903763;29;20238;-79
2021/01/21 17:12:23;;;;;;;0.75;0.75;;;10.50;84.80;;;;;;4903188;29;20207;-79
2021/01/21 17:14:50;;;;;;;0.80;0.80;;;10.50;84.70;;;;;;4902389;29;20207;-78
2021/01/21 17:17:30;;;;;;;0.73;0.73;;;10.50;98.80;;;;;;4902530;29;20213;-79
2021/01/21 17:19:58;;;;;;;0.70;0.70;;;10.60;84.70;;;;;;4903770;29;20216;-78
2021/01/21 17:22:26;;;;;;;0.70;0.70;;;10.60;85.30;;;;;;4902245;29;20564;-79
2021/01/21 17:24:54;;;;;;;0.70;0.70;;;10.60;84.70;;;;;;4902564;29;20203;-79
2021/01/21 17:27:20;;;;;;;0.70;0.70;;;10.50;99.00;;;;;;4901321;29;20210;-77
2021/01/21 17:29:47;;;;;;;0.70;0.70;;;10.50;84.80;;;;;;4900764;29;20202;-80
2021/01/21 17:32:15;;;;;;;0.70;0.70;;;10.50;84.90;;;;;;4900278;29;20215;-78
2021/01/21 17:34:43;;;;;;;0.60;0.60;;;10.60;84.30;;;;;;4900879;29;20677;-77
2021/01/21 17:37:10;;;;;;;0.77;0.77;;;10.60;84.40;;;;;;4898484;29;20330;-77
2021/01/21 17:39:37;;;;;;;0.75;0.75;;;10.60;85.30;;;;;;4897964;29;20261;-77
2021/01/21 17:42:06;;;;;;;0.60;0.60;;;10.70;99.30;;;;;;4898944;29;20577;-78
2021/01/21 17:44:33;;;;;;;0.70;0.70;;;;;;;;;;4915879;23;20246;-73
2021/01/21 17:47:00;;;;;;;0.50;0.50;;;10.50;91.80;;;;;;4908427;29;20733;-74
2021/01/21 17:49:28;;;;;;;0.60;0.60;;;;;;;;;;4914843;29;20628;-74
2021/01/21 17:51:54;;;;;;;0.70;0.70;;;10.40;99.40;;;;;;4916403;29;20263;-74
2021/01/21 17:54:22;;;;;;;0.60;0.60;;;11.20;85.80;;;;;;4916290;29;20227;-74
2021/01/21 17:56:49;;;;;;;0.70;0.70;;;10.70;99.30;;;;;;4916219;29;20258;-74
2021/01/21 17:59:17;;;;;;;0.70;0.70;;;10.60;85.30;;;;;;4903565;29;20219;-75
2021/01/21 18:01:44;;;;;;;0.60;0.60;;;;;;;;;;4897529;29;20207;-75
2021/01/21 18:04:11;;;;;;;0.65;0.65;;;10.50;99.60;;;;;;4897432;29;20318;-76
2021/01/21 18:06:38;;;;;;;0.80;0.80;;;;;;;;;;4897410;29;20218;-76
2021/01/21 18:09:06;;;;;;;0.60;0.60;;;;;;;;;;4897544;29;20215;-75
2021/01/21 18:11:33;;;;;;;0.70;0.70;;;;;;;;;;4896987;29;20212;-75
2021/01/21 18:14:01;;;;;;;0.77;0.77;;;;;;;;;;4896751;29;20223;-76
2021/01/21 18:16:28;;;;;;;0.70;0.70;;;10.30;99.80;;;;;;4897371;29;20275;-75
2021/01/21 18:18:56;;;;;;;0.82;0.82;;;;;;;;;;4896791;29;20214;-76
2021/01/21 18:21:29;;;;;;;0.50;0.50;;;;;;;;;;4897004;29;20234;-76
2021/01/21 18:23:56;;;;;;;0.60;0.60;;;10.40;99.70;;;;;;4897199;29;20235;-75
2021/01/21 18:26:23;;;;;;;0.70;0.70;;;10.60;99.90;;;;;;4896767;29;20207;-75
2021/01/21 18:28:51;;;;;;;0.70;0.70;;;;;;;;;;4896418;29;20208;-75
2021/01/21 18:31:17;;;;;;;0.70;0.70;;;10.20;99.90;;;;;;4897691;29;20619;-75
2021/01/21 18:33:45;;;;;;;0.90;0.90;;;10.40;86.70;;;;;;4896808;29;20224;-75
2021/01/21 18:36:13;;;;;;;0.70;0.70;;;;;;;;;;4896702;29;20582;-75
2021/01/21 18:38:40;;;;;;;0.80;0.80;;;;;;;;;;4896683;29;20204;-75
2021/01/21 18:41:08;;;;;;;0.70;0.70;;;10.60;99.90;;;;;;4896993;29;20681;-77
2021/01/21 18:43:35;;;;;;;0.55;0.55;;;;;;;;;;4896720;29;20457;-77
2021/01/21 18:46:02;;;;;;;0.70;0.70;;;10.70;99.90;;;;;;4897198;29;20207;-77
2021/01/21 18:48:30;;;;;;;0.60;0.60;;;10.90;96.30;;;;;;4896829;29;20230;-76
2021/01/21 18:50:58;;;;;;;0.73;0.73;;;10.80;86.40;;;;;;4896933;29;20211;-77
2021/01/21 18:53:25;;;;;;;0.60;0.60;;;10.70;99.70;;;;;;4896603;29;20507;-76
2021/01/21 18:55:52;;;;;;;0.77;0.77;;;11.10;99.90;;;;;;4897007;29;20669;-77
2021/01/21 18:58:18;;;;;;;0.50;0.50;;;10.60;99.70;;;;;;4896645;29;20211;-77
2021/01/21 19:00:47;;;;;;;0.70;0.70;;;10.70;92.50;;;;;;4896769;29;20236;-77
2021/01/21 19:03:15;;;;;;;0.68;0.68;;;;;;;;;;4896386;29;20259;-77
2021/01/21 19:05:43;;;;;;;0.70;0.70;;;;;;;;;;4896538;29;20230;-77
2021/01/21 19:08:11;;;;;;;0.70;0.70;;;10.70;86.20;;;;;;4896124;29;20251;-77
2021/01/21 19:10:42;;;;;;;0.73;0.73;;;10.60;92.50;;;;;;4896959;29;20212;-77
2021/01/21 19:13:09;;;;;;;0.73;0.73;;;10.50;99.90;;;;;;4896630;29;20353;-78
2021/01/21 19:15:37;;;;;;;0.70;0.70;;;;;;;;;;4897529;29;20267;-78
2021/01/21 19:18:05;;;;;;;0.90;0.90;;;;;;;;;;4895738;29;20680;-74
2021/01/21 19:20:32;;;;;;;0.70;0.70;;;;;;;;;;4896106;29;20301;-75
2021/01/21 19:23:00;;;;;;;0.70;0.70;;;;;;;;;;4898577;29;20672;-77
2021/01/21 19:25:27;;;;;;;0.80;0.80;;;10.80;88.10;;;;;;4906527;29;20251;-77
2021/01/21 19:27:56;;;;;;;0.68;0.68;;;;;;;;;;4901441;29;20622;-78
2021/01/21 19:30:24;;;;;;;0.80;0.80;;;10.80;99.90;;;;;;4898213;29;20203;-73
2021/01/21 19:32:51;;;;;;;0.60;0.60;;;10.60;99.90;;;;;;4896268;29;20211;-74
2021/01/21 19:35:19;;;;;;;0.70;0.70;;;10.50;99.90;;;;;;4896176;29;20626;-73
2021/01/21 19:37:45;;;;;;;0.85;0.85;;;10.80;99.90;;;;;;4899208;29;20218;-74
2021/01/21 19:40:13;;;;;;;0.70;0.70;;;10.50;92.00;;;;;;4900027;29;20687;-74
2021/01/21 19:42:41;;;;;;;0.75;0.75;;;10.80;99.90;;;;;;4900210;29;20333;-73
2021/01/21 19:45:09;;;;;;;0.70;0.70;;;10.30;99.90;;;;;;4899973;29;20227;-74
2021/01/21 19:47:36;;;;;;;0.77;0.77;;;;;;;;;;4899930;29;20211;-74
2021/01/21 19:50:06;;;;;;;0.70;0.70;;;10.30;99.90;;;;;;4899899;29;20214;-74
2021/01/21 19:52:33;;;;;;;0.70;0.70;;;;;;;;;;4900352;29;20263;-74
2021/01/21 19:55:00;;;;;;;0.70;0.70;;;10.40;99.90;;;;;;4900074;29;20234;-74
2021/01/21 19:57:29;;;;;;;0.65;0.65;;;;;;;;;;4899949;29;20207;-74
2021/01/21 19:59:57;;;;;;;0.93;0.93;;;10.00;99.90;;;;;;4899620;29;20338;-74
2021/01/21 20:02:24;;;;;;;0.70;0.70;;;9.80;99.90;;;;;;4900171;29;20262;-75
2021/01/21 20:04:52;;;;;;;0.82;0.82;;;10.00;99.90;;;;;;4899633;29;20314;-76
2021/01/21 20:07:19;;;;;;;0.70;0.70;;;9.90;96.00;;;;;;4900005;29;20215;-76
2021/01/21 20:09:46;;;;;;;0.60;0.60;;;;;;;;;;4899700;29;20203;-76
2021/01/21 20:12:14;;;;;;;0.80;0.80;;;9.80;97.00;;;;;;4899724;29;20742;-74
2021/01/21 20:14:42;;;;;;;0.80;0.80;;;;;;;;;;4899423;29;20301;-75
2021/01/21 20:17:10;;;;;;;0.73;0.73;;;10.00;91.10;;;;;;4899847;29;20679;-75
2021/01/21 20:19:38;;;;;;;0.70;0.70;;;10.00;99.10;;;;;;4899423;29;20223;-73
2021/01/21 20:22:05;;;;;;;0.70;0.70;;;10.20;99.90;;;;;;4899522;29;20207;-73
2021/01/21 20:24:32;;;;;;;0.80;0.80;;;10.30;95.10;;;;;;4899452;29;20227;-73
2021/01/21 20:26:59;;;;;;;0.80;0.80;;;10.60;99.90;;;;;;4899865;29;20215;-73
2021/01/21 20:29:27;;;;;;;0.60;0.60;;;10.50;99.90;;;;;;4898994;29;20222;-73
2021/01/21 20:31:54;;;;;;;0.70;0.70;;;;;;;;;;4899596;29;20203;-74
2021/01/21 20:34:22;;;;;;;0.70;0.70;;;10.30;91.10;;;;;;4899085;29;20776;-74
2021/01/21 20:36:49;;;;;;;0.70;0.70;;;;;;;;;;4899360;29;20203;-76
2021/01/21 20:39:16;;;;;;;0.70;0.70;;;10.40;97.20;;;;;;4898846;29;20211;-75
2021/01/21 20:41:43;;;;;;;0.70;0.70;;;10.20;95.70;;;;;;4898393;29;20598;-76
2021/01/21 20:44:10;;;;;;;0.70;0.70;;;;;;;;;;4897429;29;20227;-76
2021/01/21 20:46:37;;;;;;;0.70;0.70;;;10.50;99.90;;;;;;4898498;29;20218;-76
2021/01/21 20:49:05;;;;;;;0.60;0.60;;;;;;;;;;4898090;29;20203;-76
2021/01/21 20:51:33;;;;;;;0.75;0.75;;;10.40;92.40;;;;;;4896844;29;20210;-77
2021/01/21 20:54:01;;;;;;;0.70;0.70;;;10.20;99.90;;;;;;4896917;29;20747;-76
2021/01/21 20:56:29;;;;;;;0.70;0.70;;;;;;;;;;4894341;29;20918;-77
2021/01/21 20:58:57;;;;;;;0.80;0.80;;;;;;;;;;4896661;29;20730;-77
2021/01/21 21:01:23;;;;;;;0.70;0.70;;;10.90;99.90;;;;;;4897173;29;20620;-76
2021/01/21 21:03:51;;;;;;;0.70;0.70;;;10.50;94.10;;;;;;4898426;29;20234;-77
2021/01/21 21:06:18;;;;;;;0.73;0.73;;;10.40;99.90;;;;;;4898591;29;20207;-77
2021/01/21 21:08:45;;;;;;;0.90;0.90;;;10.30;90.30;;;;;;4898190;29;20697;-77
2021/01/21 21:11:12;;;;;;;0.70;0.70;;;10.20;98.80;;;;;;4898554;29;20315;-76
2021/01/21 21:13:39;;;;;;;0.77;0.77;;;10.00;93.10;;;;;;4898347;29;20216;-76
2021/01/21 21:16:07;;;;;;;0.60;0.60;;;10.10;91.10;;;;;;4897549;29;20199;-77
2021/01/21 21:18:34;;;;;;;0.75;0.75;;;;;;;;;;4896969;29;20758;-76
2021/01/21 21:21:02;;;;;;;0.60;0.60;;;;;;;;;;4896151;29;20206;-77
2021/01/21 21:23:30;;;;;;;0.60;0.60;;;;;;;;;;4895013;29;20231;-77
2021/01/21 21:25:58;;;;;;;0.70;0.70;;;9.70;90.90;;;;;;4896201;29;20218;-77
2021/01/21 21:28:25;;;;;;;0.70;0.70;;;;;;;;;;4895830;29;20207;-76
2021/01/21 21:30:52;;;;;;;0.80;0.80;;;9.70;91.20;;;;;;4896052;29;20563;-77
2021/01/21 21:33:19;;;;;;;0.90;0.90;;;;;;;;;;4896572;29;20234;-77
2021/01/21 21:35:47;;;;;;;0.95;0.95;;;9.40;99.90;;;;;;4896928;29;20298;-76
2021/01/21 21:38:14;;;;;;;0.93;0.93;;;9.20;99.90;;;;;;4896585;29;20211;-77
2021/01/21 21:40:41;;;;;;;0.80;0.80;;;9.30;99.90;;;;;;4898611;29;20267;-77
2021/01/21 21:43:08;;;;;;;0.80;0.80;;;9.30;93.10;;;;;;4898257;29;20258;-76
2021/01/21 21:45:35;;;;;;;0.82;0.82;;;;;;;;;;4898314;29;20211;-76
2021/01/21 21:48:03;;;;;;;0.80;0.80;;;9.20;99.90;;;;;;4898013;29;20211;-77
2021/01/21 21:50:30;;;;;;;0.82;0.82;;;;;;;;;;4898010;29;20211;-76
2021/01/21 21:52:57;;;;;;;0.82;0.82;;;9.20;99.90;;;;;;4898358;29;20208;-76
2021/01/21 21:55:24;;;;;;;1.13;1.13;;;;;;;;;;4898238;29;20207;-76
2021/01/21 21:57:51;;;;;;;0.70;0.70;;;;;;;;;;4898173;29;20266;-76
